createdAt,value
2023-05-05T00:01:06.156Z,15.25
2023-05-05T00:03:34.332Z,15.20
2023-05-05T00:06:00.825Z,15.17
2023-05-05T00:08:28.395Z,15.20
2023-05-05T00:10:55.910Z,15.19
2023-05-05T00:13:22.471Z,15.16
2023-05-05T00:15:50.938Z,15.15
2023-05-05T00:18:17.888Z,15.13
2023-05-05T00:20:46.962Z,15.10
2023-05-05T00:23:14.726Z,15.10
2023-05-05T00:25:41.028Z,15.08
2023-05-05T00:28:07.367Z,15.02
2023-05-05T00:30:34.556Z,15.04
2023-05-05T00:33:01.405Z,15.00
2023-05-05T00:35:27.741Z,14.90
2023-05-05T00:37:55.151Z,14.91
2023-05-05T00:40:21.661Z,14.87
2023-05-05T00:42:50.623Z,14.83
2023-05-05T00:45:18.552Z,14.80
2023-05-05T00:47:52.493Z,14.76
2023-05-05T00:50:24.332Z,14.71
2023-05-05T00:52:54.051Z,14.69
2023-05-05T00:55:20.687Z,14.68
2023-05-05T00:57:48.599Z,14.65
2023-05-05T01:00:15.473Z,14.63
2023-05-05T01:02:42.228Z,14.66
2023-05-05T01:05:10.007Z,14.59
2023-05-05T01:08:13.545Z,14.66
2023-05-05T01:10:52.908Z,14.66
2023-05-05T01:13:31.391Z,14.66
2023-05-05T01:16:24.882Z,14.63
2023-05-05T01:19:17.105Z,14.59
2023-05-05T01:21:48.254Z,14.54
2023-05-05T01:24:23.447Z,14.58
2023-05-05T01:27:16.122Z,14.58
2023-05-05T01:30:12.764Z,14.52
2023-05-05T01:32:44.547Z,14.43
2023-05-05T01:35:29.827Z,14.36
2023-05-05T01:38:05.579Z,14.35
2023-05-05T01:40:37.639Z,14.32
2023-05-05T01:43:07.393Z,14.29
2023-05-05T01:45:36.711Z,14.23
2023-05-05T01:48:05.222Z,14.25
2023-05-05T01:50:31.948Z,14.15
2023-05-05T01:52:59.329Z,14.24
2023-05-05T01:55:27.959Z,14.21
2023-05-05T01:57:57.031Z,14.24
2023-05-05T02:00:25.050Z,14.21
2023-05-05T02:02:54.641Z,14.17
2023-05-05T02:05:23.658Z,14.17
2023-05-05T02:07:52.932Z,14.16
2023-05-05T02:10:19.225Z,14.10
2023-05-05T02:12:47.440Z,14.11
2023-05-05T02:15:16.404Z,14.10
2023-05-05T02:17:43.894Z,14.14
2023-05-05T02:20:15.962Z,14.13
2023-05-05T02:22:42.415Z,14.17
2023-05-05T02:25:09.717Z,14.18
2023-05-05T02:27:38.068Z,14.21
2023-05-05T02:30:11.218Z,14.23
2023-05-05T02:32:53.672Z,14.27
2023-05-05T02:35:24.233Z,14.33
2023-05-05T02:37:56.027Z,14.37
2023-05-05T02:40:26.350Z,14.37
2023-05-05T02:42:54.584Z,14.42
2023-05-05T02:45:23.236Z,14.55
2023-05-05T02:47:49.628Z,14.58
2023-05-05T02:50:16.044Z,14.81
2023-05-05T02:52:42.980Z,14.98
2023-05-05T02:55:09.735Z,15.19
2023-05-05T02:58:04.216Z,15.35
2023-05-05T03:01:01.227Z,15.44
2023-05-05T03:03:40.862Z,15.49
2023-05-05T03:06:16.605Z,15.55
2023-05-05T03:08:49.869Z,15.62
2023-05-05T03:11:35.777Z,15.68
2023-05-05T03:14:18.290Z,15.72
2023-05-05T03:16:46.290Z,15.86
2023-05-05T03:19:16.229Z,15.90
2023-05-05T03:21:42.984Z,15.97
2023-05-05T03:24:19.653Z,15.98
2023-05-05T03:26:47.756Z,15.90
2023-05-05T03:29:15.116Z,15.96
2023-05-05T03:31:41.938Z,15.96
2023-05-05T03:34:08.763Z,15.93
2023-05-05T03:36:35.767Z,15.90
2023-05-05T03:39:02.129Z,15.85
2023-05-05T03:41:28.394Z,15.77
2023-05-05T03:43:54.744Z,15.73
2023-05-05T03:46:21.219Z,15.67
2023-05-05T03:48:48.395Z,15.55
2023-05-05T03:51:14.988Z,15.47
2023-05-05T03:53:41.553Z,15.38
2023-05-05T03:56:08.046Z,15.32
2023-05-05T03:58:34.337Z,15.24
2023-05-05T04:01:00.676Z,15.02
2023-05-05T04:03:27.191Z,15.02
2023-05-05T04:05:53.599Z,14.98
2023-05-05T04:08:19.984Z,14.90
2023-05-05T04:10:46.525Z,14.85
2023-05-05T04:13:12.829Z,14.82
2023-05-05T04:15:44.425Z,14.81
2023-05-05T04:18:10.801Z,14.85
2023-05-05T04:20:37.117Z,14.83
2023-05-05T04:23:03.419Z,14.93
2023-05-05T04:25:29.783Z,14.86
2023-05-05T04:27:56.322Z,14.95
2023-05-05T04:30:22.541Z,14.97
2023-05-05T04:32:48.879Z,14.88
2023-05-05T04:35:15.416Z,15.06
2023-05-05T04:37:41.708Z,14.97
2023-05-05T04:40:09.165Z,15.13
2023-05-05T04:42:36.512Z,15.15
2023-05-05T04:45:02.894Z,15.18
2023-05-05T04:47:29.294Z,15.17
2023-05-05T04:49:56.037Z,15.23
2023-05-05T04:52:22.550Z,15.15
2023-05-05T04:54:48.847Z,15.21
2023-05-05T04:57:15.167Z,15.19
2023-05-05T04:59:41.486Z,15.28
2023-05-05T05:02:07.856Z,15.35
2023-05-05T05:04:34.165Z,15.43
2023-05-05T05:07:01.458Z,15.45
2023-05-05T05:09:27.761Z,15.58
2023-05-05T05:11:54.092Z,15.60
2023-05-05T05:14:20.384Z,15.60
2023-05-05T05:16:51.001Z,15.63
2023-05-05T05:19:17.454Z,15.77
2023-05-05T05:21:43.731Z,15.78
2023-05-05T05:24:11.456Z,15.84
2023-05-05T05:26:38.450Z,15.86
2023-05-05T05:29:04.817Z,15.98
2023-05-05T05:31:31.194Z,16.02
2023-05-05T05:33:57.508Z,16.18
2023-05-05T05:36:23.816Z,16.27
2023-05-05T05:38:50.068Z,16.31
2023-05-05T05:41:16.875Z,16.36
2023-05-05T05:43:43.171Z,16.18
2023-05-05T05:46:09.548Z,16.39
2023-05-05T05:48:35.946Z,16.42
2023-05-05T05:51:02.435Z,16.49
2023-05-05T05:53:28.732Z,16.57
2023-05-05T05:55:55.066Z,16.62
2023-05-05T05:58:21.397Z,16.69
2023-05-05T06:00:48.508Z,16.79
2023-05-05T06:03:14.978Z,16.88
2023-05-05T06:05:41.620Z,16.94
2023-05-05T06:08:07.833Z,17.14
2023-05-05T06:10:34.315Z,17.24
2023-05-05T06:13:00.995Z,17.41
2023-05-05T06:15:27.364Z,17.51
2023-05-05T06:17:53.780Z,17.61
2023-05-05T06:20:20.223Z,17.70
2023-05-05T06:22:46.534Z,17.85
2023-05-05T06:25:12.833Z,17.99
2023-05-05T06:27:39.140Z,18.10
2023-05-05T06:30:09.647Z,18.05
2023-05-05T06:32:36.184Z,18.23
2023-05-05T06:35:02.505Z,18.31
2023-05-05T06:37:28.789Z,18.47
2023-05-05T06:39:55.159Z,18.58
2023-05-05T06:42:21.451Z,18.76
2023-05-05T06:44:47.735Z,18.85
2023-05-05T06:47:14.071Z,19.08
2023-05-05T06:49:40.298Z,19.31
2023-05-05T06:52:08.170Z,19.47
2023-05-05T06:54:34.508Z,19.50
2023-05-05T06:57:00.777Z,19.55
2023-05-05T06:59:27.074Z,19.65
2023-05-05T07:01:53.366Z,19.73
2023-05-05T07:04:19.678Z,19.72
2023-05-05T07:06:46.198Z,19.71
2023-05-05T07:09:12.668Z,19.72
2023-05-05T07:11:39.066Z,19.75
2023-05-05T07:14:05.347Z,19.86
2023-05-05T07:16:34.529Z,19.97
2023-05-05T07:19:00.932Z,20.08
2023-05-05T07:21:27.158Z,20.22
2023-05-05T07:23:53.445Z,20.29
2023-05-05T07:26:19.881Z,20.28
2023-05-05T07:28:46.249Z,20.34
2023-05-05T07:31:12.548Z,20.51
2023-05-05T07:33:38.959Z,20.68
2023-05-05T07:36:05.747Z,20.90
2023-05-05T07:38:32.012Z,21.34
2023-05-05T07:40:58.232Z,22.35
2023-05-05T07:43:24.515Z,24.00
2023-05-05T07:45:50.925Z,25.61
2023-05-05T07:48:17.288Z,26.83
2023-05-05T07:50:43.582Z,27.58
2023-05-05T07:53:14.605Z,27.95
2023-05-05T07:55:41.855Z,27.62
2023-05-05T07:58:08.514Z,27.07
2023-05-05T08:00:35.025Z,26.76
2023-05-05T08:03:01.381Z,26.62
2023-05-05T08:05:27.968Z,26.10
2023-05-05T08:07:54.500Z,25.90
2023-05-05T08:10:22.172Z,26.18
2023-05-05T08:12:48.589Z,26.37
2023-05-05T08:15:14.898Z,26.29
2023-05-05T08:17:52.251Z,25.76
2023-05-05T08:20:20.108Z,25.64
2023-05-05T08:22:47.004Z,25.85
2023-05-05T08:25:14.054Z,26.58
2023-05-05T08:27:41.689Z,27.63
2023-05-05T08:30:09.257Z,28.78
2023-05-05T08:32:35.632Z,29.50
2023-05-05T08:35:05.403Z,30.18
2023-05-05T08:37:32.427Z,30.62
2023-05-05T08:39:58.901Z,30.52
2023-05-05T08:42:36.062Z,31.31
2023-05-05T08:45:04.548Z,31.53
2023-05-05T08:47:32.259Z,30.88
2023-05-05T08:49:59.113Z,30.32
2023-05-05T08:52:32.647Z,29.72
2023-05-05T08:55:13.967Z,29.81
2023-05-05T08:57:52.322Z,30.27
2023-05-05T09:00:22.318Z,30.27
2023-05-05T09:02:49.481Z,30.43
2023-05-05T09:05:16.726Z,30.46
2023-05-05T09:07:44.209Z,30.37
2023-05-05T09:10:12.001Z,30.29
2023-05-05T09:12:41.968Z,30.71
2023-05-05T09:15:10.428Z,30.73
2023-05-05T09:17:37.544Z,31.14
2023-05-05T09:20:14.037Z,31.54
2023-05-05T09:22:47.744Z,31.10
2023-05-05T09:25:16.389Z,31.16
2023-05-05T09:27:48.187Z,31.38
2023-05-05T09:30:25.177Z,31.49
2023-05-05T09:32:54.534Z,31.48
2023-05-05T09:35:22.274Z,31.82
2023-05-05T09:37:48.757Z,32.05
2023-05-05T09:40:17.935Z,31.82
2023-05-05T09:42:44.708Z,31.94
2023-05-05T09:45:17.314Z,31.77
2023-05-05T09:47:45.811Z,31.76
2023-05-05T09:50:16.005Z,31.58
2023-05-05T09:52:46.203Z,31.45
2023-05-05T09:55:18.843Z,31.28
2023-05-05T09:57:47.214Z,31.26
2023-05-05T10:00:14.486Z,31.22
2023-05-05T10:02:41.777Z,31.63
2023-05-05T10:05:13.360Z,31.48
2023-05-05T10:07:41.222Z,31.29
2023-05-05T10:10:10.310Z,30.57
2023-05-05T10:12:37.897Z,30.31
2023-05-05T10:15:06.460Z,30.00
2023-05-05T10:17:36.428Z,29.81
2023-05-05T10:20:04.064Z,29.24
2023-05-05T10:22:35.059Z,28.80
2023-05-05T10:25:13.484Z,28.50
2023-05-05T10:27:50.513Z,28.30
2023-05-05T10:30:22.671Z,28.07
2023-05-05T10:33:13.244Z,27.94
2023-05-05T10:35:46.209Z,27.85
2023-05-05T10:38:13.249Z,27.55
2023-05-05T10:40:46.502Z,27.61
2023-05-05T10:43:14.379Z,27.91
2023-05-05T10:45:41.679Z,27.93
2023-05-05T10:48:14.351Z,27.70
2023-05-05T10:50:51.072Z,27.37
2023-05-05T10:53:26.028Z,26.87
2023-05-05T10:56:16.912Z,26.16
2023-05-05T10:58:55.626Z,25.85
2023-05-05T11:01:36.015Z,25.74
2023-05-05T11:04:22.547Z,25.95
2023-05-05T11:07:14.371Z,26.05
2023-05-05T11:09:58.147Z,26.29
2023-05-05T11:12:24.525Z,26.31
2023-05-05T11:15:27.852Z,26.51
2023-05-05T11:17:58.463Z,26.68
2023-05-05T11:20:48.029Z,26.68
2023-05-05T11:23:20.333Z,26.96
2023-05-05T11:25:47.089Z,27.32
2023-05-05T11:28:19.324Z,27.69
2023-05-05T11:30:54.604Z,28.10
2023-05-05T11:33:25.533Z,28.29
2023-05-05T11:36:06.762Z,28.51
2023-05-05T11:38:36.111Z,28.56
2023-05-05T11:41:33.022Z,28.85
2023-05-05T11:44:15.660Z,28.95
2023-05-05T11:46:51.203Z,29.38
2023-05-05T11:49:31.478Z,29.45
2023-05-05T11:52:04.346Z,29.67
2023-05-05T11:54:31.668Z,29.60
2023-05-05T11:57:01.922Z,29.51
2023-05-05T11:59:28.214Z,29.65
2023-05-05T12:01:54.571Z,29.46
2023-05-05T12:04:20.967Z,29.50
2023-05-05T12:06:48.874Z,29.69
2023-05-05T12:09:16.963Z,29.94
2023-05-05T12:11:53.577Z,29.90
2023-05-05T12:14:20.887Z,29.72
2023-05-05T12:16:56.723Z,29.21
2023-05-05T12:19:23.844Z,28.53
2023-05-05T12:21:50.585Z,27.77
2023-05-05T12:24:16.919Z,27.31
2023-05-05T12:26:43.244Z,26.94
2023-05-05T12:29:09.558Z,26.84
2023-05-05T12:31:37.364Z,26.87
2023-05-05T12:34:04.767Z,27.32
2023-05-05T12:36:33.588Z,28.00
2023-05-05T12:39:00.389Z,28.51
2023-05-05T12:41:27.681Z,28.78
2023-05-05T12:43:58.347Z,28.84
2023-05-05T12:46:25.638Z,28.81
2023-05-05T12:49:05.659Z,28.62
2023-05-05T12:51:33.603Z,28.46
2023-05-05T12:54:11.579Z,28.18
2023-05-05T12:56:42.880Z,28.03
2023-05-05T12:59:11.794Z,28.29
2023-05-05T13:01:52.291Z,28.45
2023-05-05T13:04:20.937Z,28.53
2023-05-05T13:06:49.219Z,28.58
2023-05-05T13:09:33.833Z,28.49
2023-05-05T13:12:02.781Z,28.27
2023-05-05T13:14:30.756Z,28.12
2023-05-05T13:16:57.386Z,28.06
2023-05-05T13:19:27.590Z,27.73
2023-05-05T13:21:58.212Z,27.54
2023-05-05T13:24:37.988Z,27.42
2023-05-05T13:27:09.257Z,27.40
2023-05-05T13:29:35.776Z,27.36
2023-05-05T13:32:02.157Z,27.66
2023-05-05T13:34:28.707Z,27.81
2023-05-05T13:36:55.117Z,28.12
2023-05-05T13:39:21.574Z,28.19
2023-05-05T13:41:48.031Z,28.32
2023-05-05T13:44:14.437Z,28.24
2023-05-05T13:46:42.228Z,27.85
2023-05-05T13:49:08.643Z,27.70
2023-05-05T13:51:35.162Z,27.46
2023-05-05T13:54:01.594Z,27.38
2023-05-05T13:56:28.012Z,27.37
2023-05-05T13:58:54.580Z,27.25
2023-05-05T14:01:21.103Z,27.37
2023-05-05T14:03:47.451Z,27.54
2023-05-05T14:06:13.878Z,27.82
2023-05-05T14:08:40.244Z,27.78
2023-05-05T14:11:06.679Z,27.56
2023-05-05T14:13:32.993Z,27.41
2023-05-05T14:15:59.463Z,27.39
2023-05-05T14:18:25.871Z,27.56
2023-05-05T14:20:52.293Z,27.43
2023-05-05T14:23:18.584Z,27.35
2023-05-05T14:25:45.050Z,27.18
2023-05-05T14:28:11.359Z,26.97
2023-05-05T14:30:37.699Z,26.74
2023-05-05T14:33:04.104Z,26.70
2023-05-05T14:35:31.152Z,26.74
2023-05-05T14:37:57.477Z,26.79
2023-05-05T14:40:23.824Z,26.71
2023-05-05T14:42:50.818Z,26.85
2023-05-05T14:45:17.863Z,26.79
2023-05-05T14:47:44.338Z,26.80
2023-05-05T14:50:10.978Z,26.55
2023-05-05T14:52:40.172Z,26.35
2023-05-05T14:55:07.745Z,26.19
2023-05-05T14:57:34.498Z,26.06
2023-05-05T15:00:00.889Z,25.98
2023-05-05T15:02:27.257Z,25.84
2023-05-05T15:04:53.603Z,25.65
2023-05-05T15:07:20.497Z,25.51
2023-05-05T15:09:46.944Z,25.24
2023-05-05T15:12:13.420Z,25.26
2023-05-05T15:14:39.918Z,25.10
2023-05-05T15:17:06.502Z,25.02
2023-05-05T15:19:32.815Z,24.84
2023-05-05T15:21:59.140Z,24.68
2023-05-05T15:24:25.921Z,24.59
2023-05-05T15:26:52.223Z,24.50
2023-05-05T15:29:18.531Z,24.37
2023-05-05T15:31:44.840Z,24.37
2023-05-05T15:34:11.192Z,24.23
2023-05-05T15:36:37.470Z,24.12
2023-05-05T15:39:04.356Z,24.09
2023-05-05T15:41:30.785Z,24.07
2023-05-05T15:43:57.373Z,23.94
2023-05-05T15:46:23.748Z,23.83
2023-05-05T15:48:50.157Z,23.63
2023-05-05T15:51:16.427Z,23.51
2023-05-05T15:53:42.691Z,23.40
2023-05-05T15:56:09.018Z,23.22
2023-05-05T15:58:36.580Z,23.14
2023-05-05T16:01:02.962Z,23.07
2023-05-05T16:03:29.464Z,22.87
2023-05-05T16:05:55.860Z,22.72
2023-05-05T16:08:22.188Z,22.52
2023-05-05T16:10:48.550Z,22.45
2023-05-05T16:13:15.025Z,22.26
2023-05-05T16:15:41.402Z,22.16
2023-05-05T16:18:07.745Z,22.04
2023-05-05T16:20:34.132Z,21.93
2023-05-05T16:23:00.521Z,21.87
2023-05-05T16:25:26.910Z,21.74
2023-05-05T16:27:56.504Z,21.77
2023-05-05T16:30:22.814Z,21.74
2023-05-05T16:32:51.169Z,21.67
2023-05-05T16:35:17.896Z,21.63
2023-05-05T16:37:44.167Z,21.53
2023-05-05T16:40:11.318Z,21.45
2023-05-05T16:42:37.622Z,21.48
2023-05-05T16:45:04.356Z,21.44
2023-05-05T16:47:30.652Z,21.30
2023-05-05T16:49:57.103Z,21.22
2023-05-05T16:52:23.448Z,21.05
2023-05-05T16:54:55.305Z,20.92
2023-05-05T16:57:22.377Z,20.77
2023-05-05T16:59:49.098Z,20.64
2023-05-05T17:02:15.476Z,20.44
2023-05-05T17:04:41.811Z,20.37
2023-05-05T17:07:08.173Z,20.19
2023-05-05T17:09:34.468Z,20.12
2023-05-05T17:12:00.689Z,20.11
2023-05-05T17:14:27.298Z,20.01
2023-05-05T17:16:54.417Z,19.92
2023-05-05T17:19:20.706Z,19.96
2023-05-05T17:21:47.012Z,20.08
2023-05-05T17:24:13.299Z,20.10
2023-05-05T17:26:40.457Z,20.10
2023-05-05T17:29:06.908Z,20.21
2023-05-05T17:31:33.224Z,20.24
2023-05-05T17:33:59.531Z,20.29
2023-05-05T17:36:25.745Z,20.32
2023-05-05T17:38:52.003Z,20.31
2023-05-05T17:41:18.226Z,20.32
2023-05-05T17:43:44.504Z,20.29
2023-05-05T17:46:10.753Z,20.25
2023-05-05T17:48:37.102Z,20.13
2023-05-05T17:51:03.364Z,20.14
2023-05-05T17:53:29.654Z,20.14
2023-05-05T17:55:55.907Z,20.10
2023-05-05T17:58:22.231Z,19.97
2023-05-05T18:00:48.460Z,20.00
2023-05-05T18:03:14.880Z,19.88
2023-05-05T18:05:41.230Z,19.90
2023-05-05T18:08:07.509Z,19.87
2023-05-05T18:10:33.825Z,19.83
2023-05-05T18:13:00.149Z,19.75
2023-05-05T18:15:26.507Z,19.73
2023-05-05T18:17:53.817Z,19.75
2023-05-05T18:20:20.253Z,19.74
2023-05-05T18:22:46.843Z,19.65
2023-05-05T18:25:13.368Z,19.75
2023-05-05T18:27:42.036Z,19.21
2023-05-05T18:30:08.682Z,19.70
2023-05-05T18:32:35.049Z,19.72
2023-05-05T18:35:01.372Z,19.73
2023-05-05T18:37:27.924Z,19.79
2023-05-05T18:39:54.289Z,19.78
2023-05-05T18:42:20.576Z,19.80
2023-05-05T18:44:46.862Z,19.72
2023-05-05T18:47:13.294Z,19.59
2023-05-05T18:49:39.642Z,19.55
2023-05-05T18:52:06.003Z,19.53
2023-05-05T18:54:32.284Z,19.56
2023-05-05T18:56:59.427Z,19.53
2023-05-05T18:59:25.780Z,19.49
2023-05-05T19:01:52.284Z,19.48
2023-05-05T19:04:30.133Z,19.48
2023-05-05T19:06:57.565Z,19.46
2023-05-05T19:09:23.868Z,19.37
2023-05-05T19:11:50.531Z,19.42
2023-05-05T19:14:17.564Z,19.45
2023-05-05T19:16:44.023Z,19.45
2023-05-05T19:19:11.070Z,19.41
2023-05-05T19:21:37.431Z,19.37
2023-05-05T19:24:03.771Z,19.29
2023-05-05T19:26:30.189Z,19.27
2023-05-05T19:28:56.490Z,19.23
2023-05-05T19:31:27.388Z,19.22
2023-05-05T19:34:01.719Z,19.18
2023-05-05T19:36:28.838Z,19.18
2023-05-05T19:38:55.754Z,19.17
2023-05-05T19:41:22.078Z,19.12
2023-05-05T19:43:49.778Z,19.10
2023-05-05T19:46:17.123Z,19.10
2023-05-05T19:48:44.009Z,19.08
2023-05-05T19:51:10.312Z,19.05
2023-05-05T19:53:36.582Z,19.05
2023-05-05T19:56:04.692Z,19.04
2023-05-05T19:58:31.327Z,19.01
2023-05-05T20:00:57.641Z,18.96
2023-05-05T20:03:24.085Z,18.88
2023-05-05T20:05:50.464Z,18.79
2023-05-05T20:08:16.719Z,18.75
2023-05-05T20:10:43.002Z,18.70
2023-05-05T20:13:09.381Z,18.67
2023-05-05T20:15:35.770Z,18.62
2023-05-05T20:18:02.260Z,18.64
2023-05-05T20:20:28.586Z,18.59
2023-05-05T20:22:54.884Z,18.53
2023-05-05T20:25:21.543Z,18.47
2023-05-05T20:27:47.878Z,18.40
2023-05-05T20:30:14.409Z,18.34
2023-05-05T20:32:41.304Z,18.28
2023-05-05T20:35:08.338Z,18.23
2023-05-05T20:37:34.640Z,18.18
2023-05-05T20:40:01.008Z,18.14
2023-05-05T20:42:27.669Z,18.07
2023-05-05T20:44:54.096Z,18.02
2023-05-05T20:47:20.593Z,17.97
2023-05-05T20:49:46.880Z,17.96
2023-05-05T20:52:13.200Z,17.91
2023-05-05T20:54:39.687Z,17.87
2023-05-05T20:57:07.440Z,17.87
2023-05-05T20:59:33.750Z,17.92
2023-05-05T21:02:00.124Z,17.90
2023-05-05T21:04:26.368Z,17.90
2023-05-05T21:06:52.682Z,17.89
2023-05-05T21:09:21.250Z,17.83
2023-05-05T21:11:48.677Z,17.78
2023-05-05T21:14:15.004Z,17.75
2023-05-05T21:16:41.638Z,17.74
2023-05-05T21:19:08.012Z,17.73
2023-05-05T21:21:34.283Z,17.73
2023-05-05T21:24:00.811Z,17.71
2023-05-05T21:26:27.157Z,17.72
2023-05-05T21:28:53.431Z,17.70
2023-05-05T21:31:22.432Z,17.72
2023-05-05T21:33:49.209Z,17.65
2023-05-05T21:36:17.405Z,17.66
2023-05-05T21:38:43.708Z,17.66
2023-05-05T21:41:09.987Z,17.62
2023-05-05T21:43:36.547Z,17.61
2023-05-05T21:46:04.539Z,17.55
2023-05-05T21:48:31.722Z,17.51
2023-05-05T21:50:58.061Z,17.45
2023-05-05T21:53:24.661Z,17.33
2023-05-05T21:55:51.492Z,17.28
2023-05-05T21:58:17.855Z,17.25
2023-05-05T22:00:44.920Z,17.22
2023-05-05T22:03:11.323Z,17.19
2023-05-05T22:05:38.151Z,17.10
2023-05-05T22:08:04.573Z,17.09
2023-05-05T22:10:30.936Z,17.05
2023-05-05T22:12:57.928Z,17.01
2023-05-05T22:15:27.603Z,17.03
2023-05-05T22:17:56.374Z,17.02
2023-05-05T22:20:23.070Z,16.95
2023-05-05T22:22:49.342Z,16.99
2023-05-05T22:25:15.643Z,16.96
2023-05-05T22:27:41.978Z,16.97
2023-05-05T22:30:08.769Z,16.95
2023-05-05T22:32:35.099Z,16.88
2023-05-05T22:35:01.426Z,16.94
2023-05-05T22:37:28.034Z,16.89
2023-05-05T22:39:54.316Z,16.90
2023-05-05T22:42:20.829Z,16.88
2023-05-05T22:44:48.621Z,16.86
2023-05-05T22:47:15.080Z,16.82
2023-05-05T22:49:41.508Z,16.77
2023-05-05T22:52:08.597Z,16.69
2023-05-05T22:54:34.881Z,16.69
2023-05-05T22:57:02.129Z,16.66
2023-05-05T22:59:28.407Z,16.61
2023-05-05T23:01:54.738Z,16.58
2023-05-05T23:04:23.609Z,16.53
2023-05-05T23:06:50.127Z,16.53
2023-05-05T23:09:16.362Z,16.52
2023-05-05T23:11:42.673Z,16.53
2023-05-05T23:14:08.930Z,16.47
2023-05-05T23:16:35.270Z,16.41
2023-05-05T23:19:01.612Z,16.32
2023-05-05T23:21:29.221Z,16.29
2023-05-05T23:23:55.705Z,16.29
2023-05-05T23:26:22.031Z,16.26
2023-05-05T23:28:48.319Z,16.19
2023-05-05T23:31:14.646Z,16.15
2023-05-05T23:33:40.958Z,16.12
2023-05-05T23:36:07.374Z,16.13
2023-05-05T23:38:33.645Z,16.10
2023-05-05T23:40:59.910Z,16.11
2023-05-05T23:43:26.232Z,16.10
2023-05-05T23:45:52.644Z,16.13
2023-05-05T23:48:19.215Z,16.10
2023-05-05T23:50:45.573Z,16.03
2023-05-05T23:53:11.881Z,16.06
2023-05-05T23:55:38.171Z,16.06
2023-05-05T23:58:04.517Z,16.07
